sensor_id;sensor_type;location;lat;lon;timestamp;temperature;humidity
46440;DHT22;32138;50.966;6.968;2023-08-12T00:00:17;22.20;99.90
46440;DHT22;32138;50.966;6.968;2023-08-12T00:01:48;22.30;99.90
46440;DHT22;32138;50.966;6.968;2023-08-12T00:03:19;22.40;99.90
46440;DHT22;32138;50.966;6.968;2023-08-12T00:04:50;22.40;99.90
46440;DHT22;32138;50.966;6.968;2023-08-12T00:06:21;22.30;99.90
46440;DHT22;32138;50.966;6.968;2023-08-12T00:07:51;22.40;99.90
46440;DHT22;32138;50.966;6.968;2023-08-12T00:09:22;22.50;99.90
46440;DHT22;32138;50.966;6.968;2023-08-12T00:10:53;22.40;99.90
46440;DHT22;32138;50.966;6.968;2023-08-12T00:12:23;22.40;99.90
46440;DHT22;32138;50.966;6.968;2023-08-12T00:13:54;22.30;99.90
46440;DHT22;32138;50.966;6.968;2023-08-12T00:15:25;22.30;99.90
46440;DHT22;32138;50.966;6.968;2023-08-12T00:16:56;22.30;99.90
46440;DHT22;32138;50.966;6.968;2023-08-12T00:18:27;22.30;99.90
46440;DHT22;32138;50.966;6.968;2023-08-12T00:19:58;22.20;99.90
46440;DHT22;32138;50.966;6.968;2023-08-12T00:21:29;22.00;99.90
46440;DHT22;32138;50.966;6.968;2023-08-12T00:23:00;22.10;99.90
46440;DHT22;32138;50.966;6.968;2023-08-12T00:24:30;22.10;99.90
46440;DHT22;32138;50.966;6.968;2023-08-12T00:26:01;22.10;99.90
46440;DHT22;32138;50.966;6.968;2023-08-12T00:27:32;22.10;99.90
46440;DHT22;32138;50.966;6.968;2023-08-12T00:29:03;22.20;99.90
46440;DHT22;32138;50.966;6.968;2023-08-12T00:30:34;22.30;99.90
46440;DHT22;32138;50.966;6.968;2023-08-12T00:32:05;22.30;99.90
46440;DHT22;32138;50.966;6.968;2023-08-12T00:33:36;22.30;99.90
46440;DHT22;32138;50.966;6.968;2023-08-12T00:35:07;22.30;99.90
46440;DHT22;32138;50.966;6.968;2023-08-12T00:36:38;22.20;99.90
46440;DHT22;32138;50.966;6.968;2023-08-12T00:38:08;22.30;99.90
46440;DHT22;32138;50.966;6.968;2023-08-12T00:39:39;22.30;99.90
46440;DHT22;32138;50.966;6.968;2023-08-12T00:41:10;22.20;99.90
46440;DHT22;32138;50.966;6.968;2023-08-12T00:42:41;22.20;99.90
46440;DHT22;32138;50.966;6.968;2023-08-12T00:44:12;22.20;99.90
46440;DHT22;32138;50.966;6.968;2023-08-12T00:45:43;22.30;99.90
46440;DHT22;32138;50.966;6.968;2023-08-12T00:47:15;22.40;99.90
46440;DHT22;32138;50.966;6.968;2023-08-12T00:48:47;22.40;99.90
46440;DHT22;32138;50.966;6.968;2023-08-12T00:50:18;22.30;99.90
46440;DHT22;32138;50.966;6.968;2023-08-12T00:51:50;22.30;99.90
46440;DHT22;32138;50.966;6.968;2023-08-12T00:53:23;22.30;99.90
46440;DHT22;32138;50.966;6.968;2023-08-12T00:54:54;22.30;99.90
46440;DHT22;32138;50.966;6.968;2023-08-12T00:56:26;22.20;99.90
46440;DHT22;32138;50.966;6.968;2023-08-12T00:57:57;22.20;99.90
46440;DHT22;32138;50.966;6.968;2023-08-12T00:59:28;22.10;99.90
46440;DHT22;32138;50.966;6.968;2023-08-12T01:00:59;22.10;99.90
46440;DHT22;32138;50.966;6.968;2023-08-12T01:02:30;22.20;99.90
46440;DHT22;32138;50.966;6.968;2023-08-12T01:04:01;22.10;99.90
46440;DHT22;32138;50.966;6.968;2023-08-12T01:05:33;22.10;99.90
46440;DHT22;32138;50.966;6.968;2023-08-12T01:07:04;22.00;99.90
46440;DHT22;32138;50.966;6.968;2023-08-12T01:08:35;21.90;99.90
46440;DHT22;32138;50.966;6.968;2023-08-12T01:10:06;21.90;99.90
46440;DHT22;32138;50.966;6.968;2023-08-12T01:14:17;22.00;99.90
46440;DHT22;32138;50.966;6.968;2023-08-12T01:15:55;22.00;99.90
46440;DHT22;32138;50.966;6.968;2023-08-12T01:17:28;21.90;99.90
46440;DHT22;32138;50.966;6.968;2023-08-12T01:19:00;21.90;99.90
46440;DHT22;32138;50.966;6.968;2023-08-12T01:20:32;22.00;99.90
46440;DHT22;32138;50.966;6.968;2023-08-12T01:22:05;22.00;99.90
46440;DHT22;32138;50.966;6.968;2023-08-12T01:23:38;22.10;99.90
46440;DHT22;32138;50.966;6.968;2023-08-12T01:25:09;22.00;99.90
46440;DHT22;32138;50.966;6.968;2023-08-12T01:26:40;22.00;99.90
46440;DHT22;32138;50.966;6.968;2023-08-12T01:28:11;22.00;99.90
46440;DHT22;32138;50.966;6.968;2023-08-12T01:29:46;21.90;99.90
46440;DHT22;32138;50.966;6.968;2023-08-12T01:31:34;21.90;99.90
46440;DHT22;32138;50.966;6.968;2023-08-12T01:33:25;22.00;99.90
46440;DHT22;32138;50.966;6.968;2023-08-12T01:36:53;21.90;99.90
46440;DHT22;32138;50.966;6.968;2023-08-12T01:38:26;21.90;99.90
46440;DHT22;32138;50.966;6.968;2023-08-12T01:40:01;21.90;99.90
46440;DHT22;32138;50.966;6.968;2023-08-12T01:41:36;21.90;99.90
46440;DHT22;32138;50.966;6.968;2023-08-12T01:43:07;21.70;99.90
46440;DHT22;32138;50.966;6.968;2023-08-12T01:44:38;21.60;99.90
46440;DHT22;32138;50.966;6.968;2023-08-12T01:46:10;21.60;99.90
46440;DHT22;32138;50.966;6.968;2023-08-12T01:47:44;21.60;99.90
46440;DHT22;32138;50.966;6.968;2023-08-12T01:49:15;21.50;99.90
46440;DHT22;32138;50.966;6.968;2023-08-12T01:50:46;21.50;99.90
46440;DHT22;32138;50.966;6.968;2023-08-12T01:52:18;21.60;99.90
46440;DHT22;32138;50.966;6.968;2023-08-12T01:53:48;21.60;99.90
46440;DHT22;32138;50.966;6.968;2023-08-12T01:55:19;21.70;99.90
46440;DHT22;32138;50.966;6.968;2023-08-12T01:56:50;21.70;99.90
46440;DHT22;32138;50.966;6.968;2023-08-12T01:58:21;21.80;99.90
46440;DHT22;32138;50.966;6.968;2023-08-12T01:59:52;21.70;99.90
46440;DHT22;32138;50.966;6.968;2023-08-12T02:01:22;21.60;99.90
46440;DHT22;32138;50.966;6.968;2023-08-12T02:02:53;21.70;99.90
46440;DHT22;32138;50.966;6.968;2023-08-12T02:04:25;21.60;99.90
46440;DHT22;32138;50.966;6.968;2023-08-12T02:05:57;21.50;99.90
46440;DHT22;32138;50.966;6.968;2023-08-12T02:07:27;21.50;99.90
46440;DHT22;32138;50.966;6.968;2023-08-12T02:08:58;21.50;99.90
46440;DHT22;32138;50.966;6.968;2023-08-12T02:10:29;21.50;99.90
46440;DHT22;32138;50.966;6.968;2023-08-12T02:12:00;21.40;99.90
46440;DHT22;32138;50.966;6.968;2023-08-12T02:13:30;21.40;99.90
46440;DHT22;32138;50.966;6.968;2023-08-12T02:15:01;21.40;99.90
46440;DHT22;32138;50.966;6.968;2023-08-12T02:16:32;21.40;99.90
46440;DHT22;32138;50.966;6.968;2023-08-12T02:18:03;21.30;99.90
46440;DHT22;32138;50.966;6.968;2023-08-12T02:19:34;21.40;99.90
46440;DHT22;32138;50.966;6.968;2023-08-12T02:21:05;21.40;99.90
46440;DHT22;32138;50.966;6.968;2023-08-12T02:22:36;21.50;99.90
46440;DHT22;32138;50.966;6.968;2023-08-12T02:24:07;21.60;99.90
46440;DHT22;32138;50.966;6.968;2023-08-12T02:25:38;21.60;99.90
46440;DHT22;32138;50.966;6.968;2023-08-12T02:27:09;21.60;99.90
46440;DHT22;32138;50.966;6.968;2023-08-12T02:28:40;21.60;99.90
46440;DHT22;32138;50.966;6.968;2023-08-12T02:30:11;21.60;99.90
46440;DHT22;32138;50.966;6.968;2023-08-12T02:31:42;21.60;99.90
46440;DHT22;32138;50.966;6.968;2023-08-12T02:33:12;21.50;99.90
46440;DHT22;32138;50.966;6.968;2023-08-12T02:34:43;21.50;99.90
46440;DHT22;32138;50.966;6.968;2023-08-12T02:36:14;21.40;99.90
46440;DHT22;32138;50.966;6.968;2023-08-12T02:37:45;21.50;99.90
46440;DHT22;32138;50.966;6.968;2023-08-12T02:39:16;21.40;99.90
46440;DHT22;32138;50.966;6.968;2023-08-12T02:40:50;21.40;99.90
46440;DHT22;32138;50.966;6.968;2023-08-12T02:42:20;21.50;99.90
46440;DHT22;32138;50.966;6.968;2023-08-12T02:43:51;21.50;99.90
46440;DHT22;32138;50.966;6.968;2023-08-12T02:45:22;21.50;99.90
46440;DHT22;32138;50.966;6.968;2023-08-12T02:46:53;21.50;99.90
46440;DHT22;32138;50.966;6.968;2023-08-12T02:48:23;21.30;99.90
46440;DHT22;32138;50.966;6.968;2023-08-12T02:49:54;21.30;99.90
46440;DHT22;32138;50.966;6.968;2023-08-12T02:51:25;21.10;99.90
46440;DHT22;32138;50.966;6.968;2023-08-12T02:52:56;21.20;99.90
46440;DHT22;32138;50.966;6.968;2023-08-12T02:54:26;21.20;99.90
46440;DHT22;32138;50.966;6.968;2023-08-12T02:55:57;21.30;99.90
46440;DHT22;32138;50.966;6.968;2023-08-12T02:57:28;21.40;99.90
46440;DHT22;32138;50.966;6.968;2023-08-12T02:58:59;21.40;99.90
46440;DHT22;32138;50.966;6.968;2023-08-12T03:00:30;21.40;99.90
46440;DHT22;32138;50.966;6.968;2023-08-12T03:02:01;21.40;99.90
46440;DHT22;32138;50.966;6.968;2023-08-12T03:03:32;21.40;99.90
46440;DHT22;32138;50.966;6.968;2023-08-12T03:05:02;21.40;99.90
46440;DHT22;32138;50.966;6.968;2023-08-12T03:06:33;21.40;99.90
46440;DHT22;32138;50.966;6.968;2023-08-12T03:08:04;21.40;99.90
46440;DHT22;32138;50.966;6.968;2023-08-12T03:09:35;21.50;99.90
46440;DHT22;32138;50.966;6.968;2023-08-12T03:11:06;21.60;99.90
46440;DHT22;32138;50.966;6.968;2023-08-12T03:12:37;21.50;99.90
46440;DHT22;32138;50.966;6.968;2023-08-12T03:14:08;21.50;99.90
46440;DHT22;32138;50.966;6.968;2023-08-12T03:15:39;21.50;99.90
46440;DHT22;32138;50.966;6.968;2023-08-12T03:17:10;21.60;99.90
46440;DHT22;32138;50.966;6.968;2023-08-12T03:18:41;21.60;99.90
46440;DHT22;32138;50.966;6.968;2023-08-12T03:20:12;21.60;99.90
46440;DHT22;32138;50.966;6.968;2023-08-12T03:21:43;21.60;99.90
46440;DHT22;32138;50.966;6.968;2023-08-12T03:23:14;21.60;99.90
46440;DHT22;32138;50.966;6.968;2023-08-12T03:24:45;21.60;99.90
46440;DHT22;32138;50.966;6.968;2023-08-12T03:26:16;21.50;99.90
46440;DHT22;32138;50.966;6.968;2023-08-12T03:27:47;21.40;99.90
46440;DHT22;32138;50.966;6.968;2023-08-12T03:29:17;21.40;99.90
46440;DHT22;32138;50.966;6.968;2023-08-12T03:30:51;21.50;99.90
46440;DHT22;32138;50.966;6.968;2023-08-12T03:32:24;21.40;99.90
46440;DHT22;32138;50.966;6.968;2023-08-12T03:33:55;21.30;99.90
46440;DHT22;32138;50.966;6.968;2023-08-12T03:35:26;21.20;99.90
46440;DHT22;32138;50.966;6.968;2023-08-12T03:36:57;21.10;99.90
46440;DHT22;32138;50.966;6.968;2023-08-12T03:38:27;21.20;99.90
46440;DHT22;32138;50.966;6.968;2023-08-12T03:39:58;21.20;99.90
46440;DHT22;32138;50.966;6.968;2023-08-12T03:41:29;21.30;99.90
46440;DHT22;32138;50.966;6.968;2023-08-12T03:43:01;21.20;99.90
46440;DHT22;32138;50.966;6.968;2023-08-12T03:44:31;21.30;99.90
46440;DHT22;32138;50.966;6.968;2023-08-12T03:46:02;21.30;99.90
46440;DHT22;32138;50.966;6.968;2023-08-12T03:47:33;21.10;99.90
46440;DHT22;32138;50.966;6.968;2023-08-12T03:49:04;21.00;99.90
46440;DHT22;32138;50.966;6.968;2023-08-12T03:50:35;21.00;99.90
46440;DHT22;32138;50.966;6.968;2023-08-12T03:52:07;21.00;99.90
46440;DHT22;32138;50.966;6.968;2023-08-12T03:53:38;20.90;99.90
46440;DHT22;32138;50.966;6.968;2023-08-12T03:55:09;20.90;99.90
46440;DHT22;32138;50.966;6.968;2023-08-12T03:56:40;20.80;99.90
46440;DHT22;32138;50.966;6.968;2023-08-12T03:58:11;20.80;99.90
46440;DHT22;32138;50.966;6.968;2023-08-12T03:59:41;20.80;99.90
46440;DHT22;32138;50.966;6.968;2023-08-12T04:01:12;20.80;99.90
46440;DHT22;32138;50.966;6.968;2023-08-12T04:02:43;20.90;99.90
46440;DHT22;32138;50.966;6.968;2023-08-12T04:04:14;21.00;99.90
46440;DHT22;32138;50.966;6.968;2023-08-12T04:05:50;21.00;99.90
46440;DHT22;32138;50.966;6.968;2023-08-12T04:07:22;20.90;99.90
46440;DHT22;32138;50.966;6.968;2023-08-12T04:08:53;20.80;99.90
46440;DHT22;32138;50.966;6.968;2023-08-12T04:10:24;20.80;99.90
46440;DHT22;32138;50.966;6.968;2023-08-12T04:11:55;20.80;99.90
46440;DHT22;32138;50.966;6.968;2023-08-12T04:13:26;20.80;99.90
46440;DHT22;32138;50.966;6.968;2023-08-12T04:14:56;20.80;99.90
46440;DHT22;32138;50.966;6.968;2023-08-12T04:16:27;20.90;99.90
46440;DHT22;32138;50.966;6.968;2023-08-12T04:17:58;20.90;99.90
46440;DHT22;32138;50.966;6.968;2023-08-12T04:19:29;20.90;99.90
46440;DHT22;32138;50.966;6.968;2023-08-12T04:21:00;20.90;99.90
46440;DHT22;32138;50.966;6.968;2023-08-12T04:22:30;20.90;99.90
46440;DHT22;32138;50.966;6.968;2023-08-12T04:24:01;20.80;99.90
46440;DHT22;32138;50.966;6.968;2023-08-12T04:25:32;20.90;99.90
46440;DHT22;32138;50.966;6.968;2023-08-12T04:27:03;20.90;99.90
46440;DHT22;32138;50.966;6.968;2023-08-12T04:28:34;20.90;99.90
46440;DHT22;32138;50.966;6.968;2023-08-12T04:30:05;20.80;99.90
46440;DHT22;32138;50.966;6.968;2023-08-12T04:31:37;20.80;99.90
46440;DHT22;32138;50.966;6.968;2023-08-12T04:33:08;20.80;99.90
46440;DHT22;32138;50.966;6.968;2023-08-12T04:34:39;20.80;99.90
46440;DHT22;32138;50.966;6.968;2023-08-12T04:36:10;20.80;99.90
46440;DHT22;32138;50.966;6.968;2023-08-12T04:37:40;20.70;99.90
46440;DHT22;32138;50.966;6.968;2023-08-12T04:39:11;20.70;99.90
46440;DHT22;32138;50.966;6.968;2023-08-12T04:40:42;20.70;99.90
46440;DHT22;32138;50.966;6.968;2023-08-12T04:42:13;20.60;99.90
46440;DHT22;32138;50.966;6.968;2023-08-12T04:43:43;20.70;99.90
46440;DHT22;32138;50.966;6.968;2023-08-12T04:45:14;20.70;99.90
46440;DHT22;32138;50.966;6.968;2023-08-12T04:46:46;20.70;99.90
46440;DHT22;32138;50.966;6.968;2023-08-12T04:48:17;20.70;99.90
46440;DHT22;32138;50.966;6.968;2023-08-12T04:49:48;20.70;99.90
46440;DHT22;32138;50.966;6.968;2023-08-12T04:51:19;20.70;99.90
46440;DHT22;32138;50.966;6.968;2023-08-12T04:52:49;20.70;99.90
46440;DHT22;32138;50.966;6.968;2023-08-12T04:54:20;20.60;99.90
46440;DHT22;32138;50.966;6.968;2023-08-12T04:55:51;20.70;99.90
46440;DHT22;32138;50.966;6.968;2023-08-12T04:57:22;20.70;99.90
46440;DHT22;32138;50.966;6.968;2023-08-12T04:58:52;20.80;99.90
46440;DHT22;32138;50.966;6.968;2023-08-12T05:00:23;20.80;99.90
46440;DHT22;32138;50.966;6.968;2023-08-12T05:01:54;20.90;99.90
46440;DHT22;32138;50.966;6.968;2023-08-12T05:03:24;20.70;99.90
46440;DHT22;32138;50.966;6.968;2023-08-12T05:04:55;20.80;99.90
46440;DHT22;32138;50.966;6.968;2023-08-12T05:06:26;20.70;99.90
46440;DHT22;32138;50.966;6.968;2023-08-12T05:07:57;20.70;99.90
46440;DHT22;32138;50.966;6.968;2023-08-12T05:09:28;20.60;99.90
46440;DHT22;32138;50.966;6.968;2023-08-12T05:10:58;20.70;99.90
46440;DHT22;32138;50.966;6.968;2023-08-12T05:12:29;20.80;99.90
46440;DHT22;32138;50.966;6.968;2023-08-12T05:14:00;20.90;99.90
46440;DHT22;32138;50.966;6.968;2023-08-12T05:15:30;20.90;99.90
46440;DHT22;32138;50.966;6.968;2023-08-12T05:17:01;21.00;99.90
46440;DHT22;32138;50.966;6.968;2023-08-12T05:18:32;21.00;99.90
46440;DHT22;32138;50.966;6.968;2023-08-12T05:20:03;20.90;99.90
46440;DHT22;32138;50.966;6.968;2023-08-12T05:21:35;20.90;99.90
46440;DHT22;32138;50.966;6.968;2023-08-12T05:23:06;21.00;99.90
46440;DHT22;32138;50.966;6.968;2023-08-12T05:24:36;21.00;99.90
46440;DHT22;32138;50.966;6.968;2023-08-12T05:26:07;20.90;99.90
46440;DHT22;32138;50.966;6.968;2023-08-12T05:27:38;21.00;99.90
46440;DHT22;32138;50.966;6.968;2023-08-12T05:29:09;21.00;99.90
46440;DHT22;32138;50.966;6.968;2023-08-12T05:30:40;21.00;99.90
46440;DHT22;32138;50.966;6.968;2023-08-12T05:32:10;21.00;99.90
46440;DHT22;32138;50.966;6.968;2023-08-12T05:33:41;20.90;99.90
46440;DHT22;32138;50.966;6.968;2023-08-12T05:35:12;20.90;99.90
46440;DHT22;32138;50.966;6.968;2023-08-12T05:36:43;21.00;99.90
46440;DHT22;32138;50.966;6.968;2023-08-12T05:38:13;21.00;99.90
46440;DHT22;32138;50.966;6.968;2023-08-12T05:39:44;21.00;99.90
46440;DHT22;32138;50.966;6.968;2023-08-12T05:41:15;21.10;99.90
46440;DHT22;32138;50.966;6.968;2023-08-12T05:42:45;21.00;99.90
46440;DHT22;32138;50.966;6.968;2023-08-12T05:44:16;21.00;99.90
46440;DHT22;32138;50.966;6.968;2023-08-12T05:45:48;20.90;99.90
46440;DHT22;32138;50.966;6.968;2023-08-12T05:47:19;20.80;99.90
46440;DHT22;32138;50.966;6.968;2023-08-12T05:48:50;20.80;99.90
46440;DHT22;32138;50.966;6.968;2023-08-12T05:50:21;20.90;99.90
46440;DHT22;32138;50.966;6.968;2023-08-12T05:51:51;20.90;99.90
46440;DHT22;32138;50.966;6.968;2023-08-12T05:53:22;21.00;99.90
46440;DHT22;32138;50.966;6.968;2023-08-12T05:54:53;20.90;99.90
46440;DHT22;32138;50.966;6.968;2023-08-12T05:56:26;20.90;99.90
46440;DHT22;32138;50.966;6.968;2023-08-12T05:57:57;20.80;99.90
46440;DHT22;32138;50.966;6.968;2023-08-12T05:59:28;20.80;99.90
46440;DHT22;32138;50.966;6.968;2023-08-12T06:00:58;20.80;99.90
46440;DHT22;32138;50.966;6.968;2023-08-12T06:02:29;20.80;99.90
46440;DHT22;32138;50.966;6.968;2023-08-12T06:04:00;20.80;99.90
46440;DHT22;32138;50.966;6.968;2023-08-12T06:05:31;20.90;99.90
46440;DHT22;32138;50.966;6.968;2023-08-12T06:07:02;20.90;99.90
46440;DHT22;32138;50.966;6.968;2023-08-12T06:08:32;20.90;99.90
46440;DHT22;32138;50.966;6.968;2023-08-12T06:10:04;20.90;99.90
46440;DHT22;32138;50.966;6.968;2023-08-12T06:11:35;20.80;99.90
46440;DHT22;32138;50.966;6.968;2023-08-12T06:13:06;20.70;99.90
46440;DHT22;32138;50.966;6.968;2023-08-12T06:14:37;20.70;99.90
46440;DHT22;32138;50.966;6.968;2023-08-12T06:16:09;20.70;99.90
46440;DHT22;32138;50.966;6.968;2023-08-12T06:17:40;20.70;99.90
46440;DHT22;32138;50.966;6.968;2023-08-12T06:19:10;20.70;99.90
46440;DHT22;32138;50.966;6.968;2023-08-12T06:20:41;20.60;99.90
46440;DHT22;32138;50.966;6.968;2023-08-12T06:22:15;20.60;99.90
46440;DHT22;32138;50.966;6.968;2023-08-12T06:23:45;20.60;99.90
46440;DHT22;32138;50.966;6.968;2023-08-12T06:25:17;20.70;99.90
46440;DHT22;32138;50.966;6.968;2023-08-12T06:26:48;20.60;99.90
46440;DHT22;32138;50.966;6.968;2023-08-12T06:28:18;20.70;99.90
46440;DHT22;32138;50.966;6.968;2023-08-12T06:29:49;20.60;99.90
46440;DHT22;32138;50.966;6.968;2023-08-12T06:31:20;20.70;99.90
46440;DHT22;32138;50.966;6.968;2023-08-12T06:32:50;20.70;99.90
46440;DHT22;32138;50.966;6.968;2023-08-12T06:34:21;20.60;99.90
46440;DHT22;32138;50.966;6.968;2023-08-12T06:35:52;20.60;99.90
46440;DHT22;32138;50.966;6.968;2023-08-12T06:37:23;20.50;99.90
46440;DHT22;32138;50.966;6.968;2023-08-12T06:38:53;20.50;99.90
46440;DHT22;32138;50.966;6.968;2023-08-12T06:40:24;20.50;99.90
46440;DHT22;32138;50.966;6.968;2023-08-12T06:41:55;20.50;99.90
46440;DHT22;32138;50.966;6.968;2023-08-12T06:43:26;20.50;99.90
46440;DHT22;32138;50.966;6.968;2023-08-12T06:44:59;20.50;99.90
46440;DHT22;32138;50.966;6.968;2023-08-12T06:46:30;20.50;99.90
46440;DHT22;32138;50.966;6.968;2023-08-12T06:48:01;20.60;99.90
46440;DHT22;32138;50.966;6.968;2023-08-12T06:49:32;20.60;99.90
46440;DHT22;32138;50.966;6.968;2023-08-12T06:51:03;20.60;99.90
46440;DHT22;32138;50.966;6.968;2023-08-12T06:52:40;20.60;99.90
46440;DHT22;32138;50.966;6.968;2023-08-12T06:54:11;20.50;99.90
46440;DHT22;32138;50.966;6.968;2023-08-12T06:55:45;20.50;99.90
46440;DHT22;32138;50.966;6.968;2023-08-12T06:57:16;20.50;99.90
46440;DHT22;32138;50.966;6.968;2023-08-12T06:58:46;20.50;99.90
46440;DHT22;32138;50.966;6.968;2023-08-12T07:00:17;20.60;99.90
46440;DHT22;32138;50.966;6.968;2023-08-12T07:01:48;20.60;99.90
46440;DHT22;32138;50.966;6.968;2023-08-12T07:03:19;20.60;99.90
46440;DHT22;32138;50.966;6.968;2023-08-12T07:04:50;20.60;99.90
46440;DHT22;32138;50.966;6.968;2023-08-12T07:06:22;20.60;99.90
46440;DHT22;32138;50.966;6.968;2023-08-12T07:07:53;20.60;99.90
46440;DHT22;32138;50.966;6.968;2023-08-12T07:09:23;20.60;99.90
46440;DHT22;32138;50.966;6.968;2023-08-12T07:10:54;20.60;99.90
46440;DHT22;32138;50.966;6.968;2023-08-12T07:12:25;20.60;99.90
46440;DHT22;32138;50.966;6.968;2023-08-12T07:13:55;20.60;99.90
46440;DHT22;32138;50.966;6.968;2023-08-12T07:15:26;20.60;99.90
46440;DHT22;32138;50.966;6.968;2023-08-12T07:16:57;20.60;99.90
46440;DHT22;32138;50.966;6.968;2023-08-12T07:18:28;20.60;99.90
46440;DHT22;32138;50.966;6.968;2023-08-12T07:19:59;20.70;99.90
46440;DHT22;32138;50.966;6.968;2023-08-12T07:21:30;20.60;99.90
46440;DHT22;32138;50.966;6.968;2023-08-12T07:23:01;20.60;99.90
46440;DHT22;32138;50.966;6.968;2023-08-12T07:24:31;20.70;99.90
46440;DHT22;32138;50.966;6.968;2023-08-12T07:26:02;20.60;99.90
46440;DHT22;32138;50.966;6.968;2023-08-12T07:27:33;20.80;99.90
46440;DHT22;32138;50.966;6.968;2023-08-12T07:29:04;20.70;99.90
46440;DHT22;32138;50.966;6.968;2023-08-12T07:30:35;20.80;99.90
46440;DHT22;32138;50.966;6.968;2023-08-12T07:32:06;20.90;99.90
46440;DHT22;32138;50.966;6.968;2023-08-12T07:33:37;20.80;99.90
46440;DHT22;32138;50.966;6.968;2023-08-12T07:35:08;20.80;99.90
46440;DHT22;32138;50.966;6.968;2023-08-12T07:36:40;20.80;99.90
46440;DHT22;32138;50.966;6.968;2023-08-12T07:38:10;20.80;99.90
46440;DHT22;32138;50.966;6.968;2023-08-12T07:39:41;20.80;99.90
46440;DHT22;32138;50.966;6.968;2023-08-12T07:41:12;20.80;99.90
46440;DHT22;32138;50.966;6.968;2023-08-12T07:42:43;20.80;99.90
46440;DHT22;32138;50.966;6.968;2023-08-12T07:44:13;20.80;99.90
46440;DHT22;32138;50.966;6.968;2023-08-12T07:45:44;20.80;99.90
46440;DHT22;32138;50.966;6.968;2023-08-12T07:47:15;20.90;99.90
46440;DHT22;32138;50.966;6.968;2023-08-12T07:48:46;20.90;99.90
46440;DHT22;32138;50.966;6.968;2023-08-12T07:50:17;21.00;99.90
46440;DHT22;32138;50.966;6.968;2023-08-12T07:51:48;21.00;99.90
46440;DHT22;32138;50.966;6.968;2023-08-12T07:53:19;21.10;99.90
46440;DHT22;32138;50.966;6.968;2023-08-12T07:54:50;21.00;99.90
46440;DHT22;32138;50.966;6.968;2023-08-12T07:56:21;21.00;99.90
46440;DHT22;32138;50.966;6.968;2023-08-12T07:57:54;21.00;99.90
46440;DHT22;32138;50.966;6.968;2023-08-12T07:59:24;21.00;99.90
46440;DHT22;32138;50.966;6.968;2023-08-12T08:00:56;21.10;99.90
46440;DHT22;32138;50.966;6.968;2023-08-12T08:02:26;21.20;99.90
46440;DHT22;32138;50.966;6.968;2023-08-12T08:03:57;21.30;99.90
46440;DHT22;32138;50.966;6.968;2023-08-12T08:05:28;21.20;99.90
46440;DHT22;32138;50.966;6.968;2023-08-12T08:06:59;21.20;99.90
46440;DHT22;32138;50.966;6.968;2023-08-12T08:08:29;21.20;99.90
46440;DHT22;32138;50.966;6.968;2023-08-12T08:10:00;21.10;99.90
46440;DHT22;32138;50.966;6.968;2023-08-12T08:11:31;21.10;99.90
46440;DHT22;32138;50.966;6.968;2023-08-12T08:13:02;21.10;99.90
46440;DHT22;32138;50.966;6.968;2023-08-12T08:14:33;21.20;99.90
46440;DHT22;32138;50.966;6.968;2023-08-12T08:16:04;21.20;99.90
46440;DHT22;32138;50.966;6.968;2023-08-12T08:17:34;21.20;99.90
46440;DHT22;32138;50.966;6.968;2023-08-12T08:19:05;21.20;99.90
46440;DHT22;32138;50.966;6.968;2023-08-12T08:20:36;21.30;99.90
46440;DHT22;32138;50.966;6.968;2023-08-12T08:22:07;21.30;99.90
46440;DHT22;32138;50.966;6.968;2023-08-12T08:23:39;21.30;99.90
46440;DHT22;32138;50.966;6.968;2023-08-12T08:25:11;21.30;99.90
46440;DHT22;32138;50.966;6.968;2023-08-12T08:26:41;21.30;99.90
46440;DHT22;32138;50.966;6.968;2023-08-12T08:28:12;21.40;99.90
46440;DHT22;32138;50.966;6.968;2023-08-12T08:29:43;21.50;99.90
46440;DHT22;32138;50.966;6.968;2023-08-12T08:31:14;21.50;99.90
46440;DHT22;32138;50.966;6.968;2023-08-12T08:32:44;21.50;99.90
46440;DHT22;32138;50.966;6.968;2023-08-12T08:34:16;21.50;99.90
46440;DHT22;32138;50.966;6.968;2023-08-12T08:35:50;21.50;99.90
46440;DHT22;32138;50.966;6.968;2023-08-12T08:37:21;21.50;99.90
46440;DHT22;32138;50.966;6.968;2023-08-12T08:38:51;21.40;99.90
46440;DHT22;32138;50.966;6.968;2023-08-12T08:40:23;21.40;99.90
46440;DHT22;32138;50.966;6.968;2023-08-12T08:41:54;21.30;99.90
46440;DHT22;32138;50.966;6.968;2023-08-12T08:43:26;21.30;99.90
46440;DHT22;32138;50.966;6.968;2023-08-12T08:45:00;21.30;99.90
46440;DHT22;32138;50.966;6.968;2023-08-12T08:46:32;21.20;99.90
46440;DHT22;32138;50.966;6.968;2023-08-12T08:48:03;21.20;99.90
46440;DHT22;32138;50.966;6.968;2023-08-12T08:49:36;21.20;99.90
46440;DHT22;32138;50.966;6.968;2023-08-12T08:51:09;21.20;99.90
46440;DHT22;32138;50.966;6.968;2023-08-12T08:52:41;21.20;99.90
46440;DHT22;32138;50.966;6.968;2023-08-12T08:54:14;21.20;99.90
46440;DHT22;32138;50.966;6.968;2023-08-12T08:55:45;21.20;99.90
46440;DHT22;32138;50.966;6.968;2023-08-12T08:57:18;21.20;99.90
46440;DHT22;32138;50.966;6.968;2023-08-12T08:58:49;21.30;99.90
46440;DHT22;32138;50.966;6.968;2023-08-12T09:00:20;21.30;99.90
46440;DHT22;32138;50.966;6.968;2023-08-12T09:01:51;21.20;99.90
46440;DHT22;32138;50.966;6.968;2023-08-12T09:03:24;21.20;99.90
46440;DHT22;32138;50.966;6.968;2023-08-12T09:04:56;21.20;99.90
46440;DHT22;32138;50.966;6.968;2023-08-12T09:06:28;21.40;99.90
46440;DHT22;32138;50.966;6.968;2023-08-12T09:08:01;21.40;99.90
46440;DHT22;32138;50.966;6.968;2023-08-12T09:09:33;21.50;99.90
46440;DHT22;32138;50.966;6.968;2023-08-12T09:11:04;21.60;99.90
46440;DHT22;32138;50.966;6.968;2023-08-12T09:12:36;21.60;99.90
46440;DHT22;32138;50.966;6.968;2023-08-12T09:14:07;21.70;99.90
46440;DHT22;32138;50.966;6.968;2023-08-12T09:15:38;21.70;99.90
46440;DHT22;32138;50.966;6.968;2023-08-12T09:17:10;21.70;99.90
46440;DHT22;32138;50.966;6.968;2023-08-12T09:18:42;21.70;99.90
46440;DHT22;32138;50.966;6.968;2023-08-12T09:20:14;21.70;99.90
46440;DHT22;32138;50.966;6.968;2023-08-12T09:21:52;21.80;99.90
46440;DHT22;32138;50.966;6.968;2023-08-12T09:23:26;21.80;99.90
46440;DHT22;32138;50.966;6.968;2023-08-12T09:24:58;21.80;99.90
46440;DHT22;32138;50.966;6.968;2023-08-12T09:26:29;21.90;99.90
46440;DHT22;32138;50.966;6.968;2023-08-12T09:27:59;21.80;99.90
46440;DHT22;32138;50.966;6.968;2023-08-12T09:29:31;21.80;99.90
46440;DHT22;32138;50.966;6.968;2023-08-12T09:31:03;21.80;99.90
46440;DHT22;32138;50.966;6.968;2023-08-12T09:32:33;21.80;99.90
46440;DHT22;32138;50.966;6.968;2023-08-12T09:34:08;21.90;99.90
46440;DHT22;32138;50.966;6.968;2023-08-12T09:35:40;22.00;99.90
46440;DHT22;32138;50.966;6.968;2023-08-12T09:37:13;22.20;99.90
46440;DHT22;32138;50.966;6.968;2023-08-12T09:38:45;22.30;99.90
46440;DHT22;32138;50.966;6.968;2023-08-12T09:40:16;22.30;99.90